Time;durP1;ratioP1;P1;durP2;ratioP2;P2;SDS_P1;SDS_P2;PMS_P1;PMS_P2;Temp;Humidity;BMP_temperature;BMP_pressure;BME280_temperature;BME280_humidity;BME280_pressure;Samples;Min_cycle;Max_cycle;Signal;HPM_P1;HPM_P2
2022/12/12 00:00:55;;;;;;;6.70;3.53;;;21.70;99.90;;;;;;5071595;28;20382;-81
2022/12/12 00:03:22;;;;;;;9.68;3.50;;;21.60;99.90;;;;;;5071560;28;20377;-81
2022/12/12 00:05:54;;;;;;;8.38;3.30;;;21.40;99.90;;;;;;5071312;28;20968;-79
2022/12/12 00:08:21;;;;;;;8.15;3.78;;;21.40;99.90;;;;;;5070183;28;20889;-79
2022/12/12 00:10:48;;;;;;;5.03;2.85;;;21.40;99.90;;;;;;5071461;28;20381;-80
2022/12/12 00:13:15;;;;;;;6.05;2.90;;;21.20;99.90;;;;;;5071361;28;20722;-80
2022/12/12 00:15:42;;;;;;;4.57;2.10;;;21.00;99.90;;;;;;5071174;28;20942;-81
2022/12/12 00:18:09;;;;;;;4.75;1.50;;;21.00;99.90;;;;;;5071427;28;20374;-79
2022/12/12 00:20:36;;;;;;;2.40;0.90;;;20.80;99.90;;;;;;5071330;28;20390;-80
2022/12/12 00:23:03;;;;;;;1.40;0.80;;;20.60;99.90;;;;;;5069742;28;20382;-80
2022/12/12 00:25:30;;;;;;;3.43;0.90;;;20.40;99.90;;;;;;5071324;28;20374;-81
2022/12/12 00:27:58;;;;;;;3.67;0.80;;;20.50;99.90;;;;;;5071204;28;20873;-81
2022/12/12 00:30:26;;;;;;;2.40;0.98;;;20.40;99.90;;;;;;5071249;28;20406;-81
2022/12/12 00:32:53;;;;;;;1.73;0.70;;;20.40;99.90;;;;;;5071251;28;20412;-82
2022/12/12 00:35:20;;;;;;;0.93;0.63;;;20.40;99.90;;;;;;5071256;28;20378;-81
2022/12/12 00:37:47;;;;;;;0.70;0.50;;;20.50;99.90;;;;;;5071009;28;20791;-83
2022/12/12 00:40:14;;;;;;;1.42;0.55;;;20.80;99.90;;;;;;5071175;28;20373;-83
2022/12/12 00:42:41;;;;;;;0.95;0.70;;;21.10;99.90;;;;;;5070833;28;20426;-82
2022/12/12 00:45:08;;;;;;;0.43;0.40;;;21.30;99.90;;;;;;5070602;28;20457;-83
2022/12/12 00:47:35;;;;;;;0.65;0.40;;;21.30;99.90;;;;;;5070755;28;20397;-83
2022/12/12 00:50:03;;;;;;;0.63;0.30;;;21.10;99.90;;;;;;5069191;28;20490;-83
2022/12/12 00:52:30;;;;;;;0.80;0.30;;;21.10;99.90;;;;;;5070878;28;20877;-83
2022/12/12 00:54:57;;;;;;;0.70;0.30;;;21.20;99.90;;;;;;5069430;28;20804;-83
2022/12/12 00:57:24;;;;;;;0.35;0.30;;;21.30;99.90;;;;;;5070357;28;20374;-83
2022/12/12 00:59:51;;;;;;;0.82;0.47;;;21.30;99.90;;;;;;5070824;28;20465;-84
2022/12/12 01:02:20;;;;;;;1.30;0.40;;;21.10;99.90;;;;;;5070673;28;20367;-82
2022/12/12 01:04:47;;;;;;;0.60;0.40;;;20.90;99.90;;;;;;5069989;28;20936;-84
2022/12/12 01:07:14;;;;;;;0.50;0.30;;;20.80;99.90;;;;;;5070823;28;20377;-83
2022/12/12 01:09:41;;;;;;;0.90;0.50;;;20.90;99.90;;;;;;5070566;28;20406;-83
2022/12/12 01:12:08;;;;;;;0.50;0.50;;;21.10;99.90;;;;;;5069164;28;20813;-84
2022/12/12 01:14:35;;;;;;;0.57;0.40;;;21.40;99.90;;;;;;5065883;28;20841;-83
2022/12/12 01:17:01;;;;;;;1.37;0.50;;;21.60;99.90;;;;;;5062828;28;20720;-84
2022/12/12 01:19:28;;;;;;;1.58;0.40;;;21.90;99.90;;;;;;5069888;28;20824;-83
2022/12/12 01:21:55;;;;;;;0.40;0.30;;;21.90;99.90;;;;;;5070850;28;20718;-83
2022/12/12 01:24:22;;;;;;;0.32;0.25;;;21.90;99.90;;;;;;5070320;28;20468;-83
2022/12/12 01:26:50;;;;;;;0.38;0.30;;;21.90;99.90;;;;;;5070403;28;20726;-83
2022/12/12 01:29:17;;;;;;;0.40;0.30;;;21.90;99.90;;;;;;5068792;28;20414;-84
2022/12/12 01:31:47;;;;;;;0.22;0.20;;;21.90;99.90;;;;;;5057380;28;20441;-83
2022/12/12 01:34:14;;;;;;;1.80;0.30;;;22.00;99.90;;;;;;5070430;28;20378;-82
2022/12/12 01:36:44;;;;;;;0.20;0.20;;;22.00;99.90;;;;;;5052328;28;20457;-85
2022/12/12 01:39:11;;;;;;;0.55;0.35;;;22.10;99.90;;;;;;5070023;28;20861;-84
2022/12/12 01:41:38;;;;;;;0.60;0.30;;;22.40;99.90;;;;;;5070284;28;20401;-83
2022/12/12 01:44:30;;;;;;;0.50;0.30;;;23.20;99.90;;;;;;5070208;28;20845;-83
2022/12/12 01:46:57;;;;;;;0.55;0.30;;;24.00;99.90;;;;;;5056982;28;20370;-83
2022/12/12 01:49:26;;;;;;;0.80;0.30;;;24.60;99.90;;;;;;5070285;28;20394;-83
2022/12/12 01:52:03;;;;;;;0.35;0.22;;;24.80;99.90;;;;;;5070153;28;20473;-83
2022/12/12 01:54:38;;;;;;;0.28;0.20;;;24.80;99.90;;;;;;5068855;28;20416;-84
2022/12/12 01:57:10;;;;;;;0.43;0.20;;;24.70;99.90;;;;;;5070240;28;20473;-84
2022/12/12 01:59:39;;;;;;;0.25;0.20;;;24.70;99.90;;;;;;5070246;28;20854;-83
2022/12/12 02:02:07;;;;;;;0.95;0.20;;;24.70;99.90;;;;;;5070229;28;20472;-83
2022/12/12 02:04:34;;;;;;;0.60;0.20;;;24.80;99.90;;;;;;5070056;28;20370;-84
2022/12/12 02:07:02;;;;;;;0.75;0.20;;;25.30;99.90;;;;;;5070227;28;20378;-84
2022/12/12 02:09:30;;;;;;;0.30;0.25;;;26.20;98.50;;;;;;5069839;28;20428;-84
2022/12/12 02:11:58;;;;;;;0.65;0.20;;;26.50;96.40;;;;;;5070105;28;20366;-83
2022/12/12 02:14:38;;;;;;;0.50;0.20;;;27.00;95.80;;;;;;5069848;28;20392;-83
2022/12/12 02:17:29;;;;;;;0.30;0.20;;;27.00;94.60;;;;;;5070058;28;20730;-84
2022/12/12 02:20:14;;;;;;;0.30;0.30;;;27.10;94.00;;;;;;5057985;28;21020;-83
2022/12/12 02:22:46;;;;;;;0.90;0.30;;;27.20;93.30;;;;;;5069709;28;20373;-83
2022/12/12 02:25:31;;;;;;;0.80;0.40;;;27.40;92.60;;;;;;5069877;28;20385;-82
2022/12/12 02:28:01;;;;;;;0.60;0.40;;;27.40;91.00;;;;;;5068365;28;20484;-83
2022/12/12 02:30:34;;;;;;;0.73;0.38;;;27.30;86.70;;;;;;5069812;28;20410;-83
2022/12/12 02:33:07;;;;;;;0.77;0.32;;;27.30;88.90;;;;;;5072515;28;20370;-83
2022/12/12 02:35:48;;;;;;;0.77;0.50;;;27.70;85.10;;;;;;5073933;28;20378;-82
2022/12/12 02:38:30;;;;;;;1.05;0.40;;;27.30;84.00;;;;;;5073365;28;20373;-82
2022/12/12 02:41:15;;;;;;;1.27;0.60;;;26.90;82.90;;;;;;5073241;28;20854;-82
2022/12/12 02:43:57;;;;;;;2.47;0.70;;;26.60;79.80;;;;;;5061119;28;20457;-82
2022/12/12 02:47:01;;;;;;;2.45;0.70;;;26.30;77.50;;;;;;5073281;28;20374;-82
2022/12/12 02:49:43;;;;;;;1.73;0.60;;;26.20;79.30;;;;;;5030732;28;20416;-82
2022/12/12 02:52:11;;;;;;;1.55;0.60;;;26.30;75.80;;;;;;5031311;28;20440;-83
2022/12/12 02:54:38;;;;;;;3.20;0.80;;;26.00;73.80;;;;;;5030726;28;20382;-83
2022/12/12 02:57:14;;;;;;;2.75;0.80;;;25.70;73.00;;;;;;5030977;28;20461;-83
2022/12/12 02:59:43;;;;;;;2.40;0.88;;;25.70;75.20;;;;;;5030685;28;20737;-83
2022/12/12 03:02:13;;;;;;;2.25;1.00;;;26.40;75.40;;;;;;5030554;28;20857;-83
2022/12/12 03:08:05;;;;;;;1.60;0.80;;;28.30;69.80;;;;;;5030677;28;20479;-82
2022/12/12 03:10:56;;;;;;;2.75;0.90;;;28.80;64.50;;;;;;5014221;28;20401;-83
2022/12/12 03:13:44;;;;;;;2.30;0.90;;;29.20;64.80;;;;;;5032163;28;20391;-83
2022/12/12 03:16:27;;;;;;;1.60;0.90;;;29.50;63.60;;;;;;5031293;28;20381;-82
2022/12/12 03:19:54;;;;;;;2.40;0.73;;;29.30;60.30;;;;;;5030799;28;20396;-82
2022/12/12 03:22:36;;;;;;;3.53;0.90;;;28.60;60.90;;;;;;4952733;28;20532;-82
2022/12/12 03:25:21;;;;;;;3.00;0.80;;;28.60;61.10;;;;;;4980927;28;20458;-81
2022/12/12 03:28:00;;;;;;;3.13;0.80;;;28.70;61.40;;;;;;5011544;28;20919;-80
2022/12/12 03:30:29;;;;;;;2.72;0.98;;;28.60;61.30;;;;;;5010655;28;20437;-83
2022/12/12 03:33:02;;;;;;;1.60;0.88;;;28.80;61.80;;;;;;5010522;28;20470;-82
2022/12/12 03:35:34;;;;;;;1.48;0.73;;;28.90;62.40;;;;;;5010715;28;20794;-82
2022/12/12 03:38:07;;;;;;;3.67;0.77;;;28.60;61.10;;;;;;5010787;28;20375;-83
2022/12/12 03:41:04;;;;;;;1.88;0.90;;;28.10;62.70;;;;;;5011559;28;20391;-81
2022/12/12 03:43:39;;;;;;;2.10;0.90;;;27.90;63.10;;;;;;5009983;28;20391;-82
2022/12/12 03:46:06;;;;;;;2.63;0.65;;;28.00;61.90;;;;;;5011329;28;20383;-82
2022/12/12 03:48:58;;;;;;;1.52;0.75;;;27.60;61.00;;;;;;5010512;28;20371;-83
2022/12/12 03:51:30;;;;;;;2.08;1.00;;;27.70;61.60;;;;;;4951776;29;20384;-82
2022/12/12 03:54:29;;;;;;;2.10;0.90;;;28.00;60.70;;;;;;5030084;28;20480;-83
2022/12/12 03:57:22;;;;;;;3.83;1.00;;;27.90;59.40;;;;;;4974118;28;20396;-82
2022/12/12 04:00:14;;;;;;;2.40;1.00;;;28.10;60.10;;;;;;4990315;28;20381;-82
2022/12/12 04:02:45;;;;;;;3.75;1.10;;;28.60;60.60;;;;;;4977667;28;20776;-80
2022/12/12 04:06:25;;;;;;;3.97;0.90;;;28.60;59.80;;;;;;4990209;28;20387;-82
2022/12/12 04:08:29;;;;;;;2.90;0.93;;;29.10;59.50;;;;;;4990541;28;21017;-81
2022/12/12 04:14:06;;;;;;;2.67;1.00;;;29.50;58.60;;;;;;4990564;28;20951;-78
2022/12/12 04:16:37;;;;;;;2.30;1.00;;;29.50;58.70;;;;;;4989926;28;20412;-81
2022/12/12 04:28:43;;;;;;;3.95;1.10;;;29.80;57.50;;;;;;4970521;28;20418;-82
2022/12/12 04:31:12;;;;;;;1.65;0.70;;;29.70;56.50;;;;;;4970136;28;20501;-81
2022/12/12 04:33:47;;;;;;;2.63;0.90;;;29.70;56.80;;;;;;5026680;28;20389;-81
2022/12/12 04:36:17;;;;;;;2.10;0.90;;;29.30;55.90;;;;;;5028824;28;20393;-81
2022/12/12 04:38:47;;;;;;;3.53;0.93;;;28.90;57.40;;;;;;5028597;28;20480;-81
2022/12/12 04:41:15;;;;;;;2.83;1.07;;;29.10;57.00;;;;;;5028767;28;20389;-82
2022/12/12 04:43:46;;;;;;;2.13;0.93;;;28.30;57.60;;;;;;5028998;28;20460;-81
2022/12/12 04:46:26;;;;;;;2.33;1.10;;;28.00;59.20;;;;;;5028654;28;20388;-81
2022/12/12 04:49:07;;;;;;;2.97;0.90;;;27.40;59.60;;;;;;5028905;28;20734;-81
2022/12/12 04:51:43;;;;;;;1.97;0.80;;;26.90;60.30;;;;;;5012485;28;20389;-81
2022/12/12 04:54:18;;;;;;;2.10;0.90;;;27.40;58.20;;;;;;5027814;28;20388;-82
2022/12/12 04:56:52;;;;;;;1.80;1.00;;;27.30;59.80;;;;;;5028630;28;20463;-81
2022/12/12 04:59:19;;;;;;;2.40;0.95;;;27.10;58.50;;;;;;5045674;28;20362;-81
2022/12/12 05:01:53;;;;;;;1.90;0.77;;;27.00;58.20;;;;;;5071048;28;20390;-81
2022/12/12 05:04:47;;;;;;;3.05;0.80;;;27.70;55.70;;;;;;5070643;28;20406;-81
2022/12/12 05:07:46;;;;;;;2.40;0.90;;;28.00;56.20;;;;;;5070531;28;20382;-81
2022/12/12 05:10:17;;;;;;;2.00;0.90;;;28.00;55.50;;;;;;4988983;28;20424;-82
2022/12/12 05:12:49;;;;;;;2.28;0.70;;;27.20;55.40;;;;;;4988726;28;20381;-82
2022/12/12 05:15:18;;;;;;;2.15;0.90;;;26.70;55.50;;;;;;4989026;28;20397;-82
2022/12/12 05:17:48;;;;;;;2.60;0.80;;;27.10;57.60;;;;;;4989046;28;20390;-82
2022/12/12 05:20:16;;;;;;;3.10;0.80;;;27.50;54.10;;;;;;4989248;28;20396;-82
2022/12/12 05:22:43;;;;;;;2.05;0.80;;;27.10;53.60;;;;;;4988723;28;20542;-81
2022/12/12 05:25:10;;;;;;;2.10;0.90;;;27.50;53.90;;;;;;4989035;28;20432;-82
2022/12/12 05:27:37;;;;;;;3.40;1.05;;;28.40;52.40;;;;;;4988509;28;20393;-81
2022/12/12 05:30:05;;;;;;;2.40;1.08;;;28.10;51.00;;;;;;4988884;28;20817;-81
2022/12/12 05:32:32;;;;;;;2.77;0.70;;;28.10;50.80;;;;;;4989042;28;20852;-82
2022/12/12 05:34:59;;;;;;;3.37;0.70;;;28.30;51.90;;;;;;4988631;28;20958;-81
2022/12/12 05:37:26;;;;;;;2.75;1.00;;;28.30;48.70;;;;;;4989050;28;20396;-82
2022/12/12 05:39:53;;;;;;;2.42;0.80;;;28.10;49.40;;;;;;4988881;28;20397;-82
2022/12/12 05:42:20;;;;;;;2.17;0.60;;;27.60;49.80;;;;;;4989051;28;20448;-80
2022/12/12 05:44:47;;;;;;;2.50;0.80;;;26.60;50.40;;;;;;4988519;28;20454;-80
2022/12/12 05:47:14;;;;;;;3.55;0.70;;;26.30;51.30;;;;;;5046470;28;20378;-81
2022/12/12 05:49:41;;;;;;;2.00;0.60;;;26.00;50.90;;;;;;5069953;28;20401;-82
2022/12/12 05:52:08;;;;;;;1.70;0.40;;;26.40;48.80;;;;;;5070002;28;20393;-80
2022/12/12 05:54:35;;;;;;;1.45;0.50;;;25.90;48.70;;;;;;5069454;28;20393;-81
2022/12/12 05:57:02;;;;;;;1.33;0.50;;;26.20;49.30;;;;;;5069811;28;20389;-81
2022/12/12 05:59:29;;;;;;;2.40;0.57;;;26.70;48.50;;;;;;5069772;28;20390;-81
2022/12/12 06:01:57;;;;;;;2.47;0.50;;;26.00;48.40;;;;;;5068615;28;20385;-83
2022/12/12 06:04:24;;;;;;;1.70;0.60;;;26.40;48.00;;;;;;5069840;28;20374;-81
2022/12/12 06:06:51;;;;;;;2.45;0.50;;;26.80;47.30;;;;;;5072515;28;20393;-83
2022/12/12 06:09:18;;;;;;;5.75;0.70;;;27.30;46.10;;;;;;5073507;28;20428;-81
2022/12/12 06:11:44;;;;;;;1.25;0.43;;;27.10;45.80;;;;;;5073940;28;20370;-82
2022/12/12 06:14:12;;;;;;;1.98;0.50;;;26.40;45.50;;;;;;5073757;28;20386;-81
2022/12/12 06:16:39;;;;;;;2.72;0.50;;;25.80;46.00;;;;;;5072306;28;20393;-81
2022/12/12 06:19:06;;;;;;;1.90;0.60;;;25.70;46.30;;;;;;5073373;28;21106;-82
2022/12/12 06:21:33;;;;;;;3.08;0.60;;;25.80;47.20;;;;;;5073480;28;20436;-83
2022/12/12 06:24:00;;;;;;;3.47;0.80;;;26.00;46.50;;;;;;5073043;28;20386;-82
2022/12/12 06:26:27;;;;;;;5.70;1.05;;;25.60;46.60;;;;;;5073371;28;20406;-80
2022/12/12 06:28:55;;;;;;;1.93;0.70;;;25.20;46.80;;;;;;5071655;28;20962;-79
2022/12/12 06:31:23;;;;;;;2.22;0.57;;;25.40;46.40;;;;;;5073028;28;20463;-79
2022/12/12 06:33:51;;;;;;;2.40;0.70;;;25.50;46.80;;;;;;5073080;28;20374;-78
2022/12/12 06:36:23;;;;;;;3.85;1.05;;;25.10;47.00;;;;;;5072606;28;20507;-81
2022/12/12 06:39:00;;;;;;;2.55;0.55;;;25.20;47.80;;;;;;5073260;28;20385;-81
2022/12/12 06:41:29;;;;;;;1.75;0.50;;;25.90;46.20;;;;;;5073298;28;20436;-81
2022/12/12 06:43:56;;;;;;;1.50;0.50;;;26.40;46.00;;;;;;5073198;28;20374;-81
2022/12/12 06:46:26;;;;;;;2.78;0.50;;;26.40;44.00;;;;;;5072991;28;20377;-83
2022/12/12 06:48:54;;;;;;;2.67;0.68;;;26.00;42.00;;;;;;5073051;28;20975;-81
2022/12/12 06:51:27;;;;;;;3.83;0.65;;;26.00;42.30;;;;;;5073562;28;20417;-82
2022/12/12 06:53:56;;;;;;;1.38;0.40;;;25.70;43.30;;;;;;5073877;28;20434;-80
2022/12/12 06:56:25;;;;;;;1.55;0.50;;;26.00;43.60;;;;;;5072889;28;20421;-82
2022/12/12 06:58:53;;;;;;;1.88;0.40;;;26.40;42.70;;;;;;5073063;28;20892;-81
2022/12/12 07:01:22;;;;;;;1.88;0.50;;;26.50;42.70;;;;;;5072897;28;20401;-82
2022/12/12 07:03:50;;;;;;;2.03;0.50;;;26.60;42.20;;;;;;5071764;28;20385;-82
2022/12/12 07:06:19;;;;;;;1.05;0.40;;;26.50;42.70;;;;;;5074287;28;20882;-85
2022/12/12 07:08:47;;;;;;;2.40;0.40;;;26.80;42.10;;;;;;5072672;28;20536;-81
2022/12/12 07:11:16;;;;;;;1.13;0.50;;;26.80;41.80;;;;;;5072854;28;20398;-81
2022/12/12 07:13:44;;;;;;;3.42;0.43;;;26.50;42.70;;;;;;5077960;28;20372;-82
2022/12/12 07:16:11;;;;;;;0.82;0.40;;;26.00;41.40;;;;;;5078281;28;20384;-83
2022/12/12 07:18:38;;;;;;;1.40;0.40;;;25.90;41.60;;;;;;5078567;28;20478;-84
2022/12/12 07:21:10;;;;;;;2.50;0.57;;;25.80;41.70;;;;;;5071317;28;20418;-80
2022/12/12 07:23:37;;;;;;;2.65;0.50;;;25.70;42.30;;;;;;5072245;28;20397;-81
2022/12/12 07:26:08;;;;;;;2.45;0.40;;;25.00;41.00;;;;;;5072609;28;20415;-83
2022/12/12 07:28:37;;;;;;;2.15;0.50;;;24.90;41.10;;;;;;5072353;28;20412;-82
2022/12/12 07:31:10;;;;;;;1.20;0.40;;;25.10;41.50;;;;;;5072305;28;20393;-82
2022/12/12 07:33:37;;;;;;;0.93;0.47;;;25.10;41.50;;;;;;5073505;28;20458;-83
2022/12/12 07:36:05;;;;;;;2.17;0.40;;;25.20;41.90;;;;;;5072922;28;20460;-81
2022/12/12 07:38:32;;;;;;;2.90;0.52;;;25.40;42.40;;;;;;5071863;28;20426;-82
2022/12/12 07:41:09;;;;;;;0.75;0.30;;;25.60;41.40;;;;;;5072713;28;20432;-81
2022/12/12 07:43:37;;;;;;;2.45;0.50;;;25.40;41.00;;;;;;5072155;28;20488;-81
2022/12/12 07:46:09;;;;;;;1.90;0.40;;;25.10;41.80;;;;;;5075023;28;20384;-81
2022/12/12 07:48:36;;;;;;;2.47;0.30;;;24.90;42.00;;;;;;5066712;28;20386;-80
2022/12/12 07:51:03;;;;;;;1.48;0.40;;;24.70;40.50;;;;;;5072978;28;20485;-81
2022/12/12 07:53:30;;;;;;;1.57;0.40;;;24.50;41.00;;;;;;5071929;28;20983;-80
2022/12/12 07:55:57;;;;;;;3.15;0.50;;;24.50;41.10;;;;;;5071953;28;20384;-79
2022/12/12 07:58:24;;;;;;;2.40;1.10;;;24.40;40.90;;;;;;5071874;28;20386;-81
2022/12/12 08:00:51;;;;;;;4.50;2.13;;;24.30;41.50;;;;;;5074197;28;20390;-81
2022/12/12 08:03:18;;;;;;;0.98;0.40;;;24.20;41.90;;;;;;5084369;28;20980;-81
2022/12/12 08:05:45;;;;;;;8.32;6.72;;;23.90;41.70;;;;;;5074269;28;20772;-81
2022/12/12 08:08:12;;;;;;;2.65;1.15;;;23.50;42.30;;;;;;5071792;28;20389;-82
2022/12/12 08:10:39;;;;;;;2.28;0.45;;;23.30;42.30;;;;;;5072170;28;20451;-80
2022/12/12 08:13:07;;;;;;;1.35;0.30;;;23.10;41.90;;;;;;5071782;28;20777;-80
2022/12/12 08:15:34;;;;;;;0.75;0.30;;;22.90;42.00;;;;;;5071832;28;20386;-80
2022/12/12 08:18:01;;;;;;;1.13;0.43;;;22.90;42.00;;;;;;5071380;28;20386;-80
2022/12/12 08:20:28;;;;;;;2.03;0.40;;;22.70;42.80;;;;;;5070316;28;20425;-80
2022/12/12 08:22:55;;;;;;;0.83;0.30;;;22.70;42.70;;;;;;5071561;28;20400;-81
2022/12/12 08:25:22;;;;;;;1.27;0.40;;;22.70;43.30;;;;;;5071365;28;20365;-81
2022/12/12 08:27:49;;;;;;;2.60;0.43;;;22.60;43.00;;;;;;5070972;28;20405;-82
2022/12/12 08:30:16;;;;;;;0.77;0.50;;;22.60;43.50;;;;;;5072309;28;20413;-81
2022/12/12 08:32:43;;;;;;;0.55;0.30;;;22.50;44.80;;;;;;5072341;28;20370;-81
2022/12/12 08:35:10;;;;;;;4.00;0.40;;;22.50;43.60;;;;;;5071214;28;20394;-80
2022/12/12 08:37:38;;;;;;;2.60;0.50;;;22.30;43.90;;;;;;5077388;28;20373;-81
2022/12/12 08:40:06;;;;;;;3.80;0.40;;;22.20;44.40;;;;;;5076007;28;20420;-81
2022/12/12 08:42:33;;;;;;;1.83;0.40;;;22.10;44.40;;;;;;5078412;28;20384;-79
2022/12/12 08:45:00;;;;;;;0.85;0.40;;;22.10;44.80;;;;;;5069112;28;20444;-82
2022/12/12 08:47:28;;;;;;;0.60;0.32;;;22.00;44.90;;;;;;5070670;28;20428;-82
2022/12/12 08:49:55;;;;;;;3.45;0.40;;;21.90;45.20;;;;;;5066481;28;20414;-82
2022/12/12 08:52:22;;;;;;;2.10;0.50;;;21.90;45.10;;;;;;5069487;28;20370;-82
2022/12/12 08:54:49;;;;;;;1.90;0.43;;;21.80;45.10;;;;;;5072728;28;20909;-82
2022/12/12 08:57:16;;;;;;;2.13;0.50;;;21.60;45.00;;;;;;5070183;28;20753;-82
2022/12/12 08:59:43;;;;;;;2.03;0.50;;;21.60;45.50;;;;;;5070664;28;20972;-75
2022/12/12 09:02:12;;;;;;;1.47;0.40;;;21.50;45.40;;;;;;5065043;28;20730;-82
2022/12/12 09:04:39;;;;;;;0.93;0.43;;;21.50;46.00;;;;;;5072968;28;20874;-81
2022/12/12 09:07:06;;;;;;;3.10;0.50;;;21.40;45.50;;;;;;5069693;28;20381;-81
2022/12/12 09:09:33;;;;;;;2.28;0.40;;;21.30;45.90;;;;;;5074801;28;20500;-81
2022/12/12 09:12:00;;;;;;;1.40;0.38;;;21.20;45.60;;;;;;5071111;28;20373;-83
2022/12/12 09:14:27;;;;;;;1.60;0.30;;;21.20;45.10;;;;;;5068980;28;20390;-82
2022/12/12 09:16:54;;;;;;;2.60;0.50;;;21.10;45.00;;;;;;5071198;28;20512;-82
2022/12/12 09:19:21;;;;;;;2.30;0.40;;;21.10;45.60;;;;;;5084512;28;20369;-83
2022/12/12 09:21:48;;;;;;;1.40;0.40;;;21.00;45.70;;;;;;5091103;28;20475;-84
2022/12/12 09:24:15;;;;;;;0.60;0.40;;;21.00;45.70;;;;;;5088474;28;20376;-82
2022/12/12 09:26:42;;;;;;;2.30;0.50;;;21.00;46.00;;;;;;5090754;28;20380;-81
2022/12/12 09:29:11;;;;;;;1.73;0.50;;;20.90;46.60;;;;;;5090131;28;20404;-81
2022/12/12 09:31:38;;;;;;;2.03;0.40;;;20.70;47.20;;;;;;5084118;28;20397;-83
2022/12/12 09:34:05;;;;;;;3.47;0.50;;;20.80;47.00;;;;;;5071543;28;20381;-83
2022/12/12 09:36:32;;;;;;;3.40;0.50;;;20.80;47.70;;;;;;5090495;28;20379;-83
2022/12/12 09:38:59;;;;;;;2.15;0.50;;;20.70;47.60;;;;;;5090296;28;20433;-82
2022/12/12 09:41:27;;;;;;;1.98;0.45;;;20.60;47.70;;;;;;5089537;28;20368;-81
2022/12/12 09:44:17;;;;;;;0.95;0.40;;;20.60;47.90;;;;;;5088284;28;20570;-82
2022/12/12 09:46:56;;;;;;;1.85;0.40;;;20.50;48.20;;;;;;5083688;28;20376;-82
2022/12/12 09:49:47;;;;;;;2.03;0.40;;;20.50;48.30;;;;;;5083181;28;20434;-81
2022/12/12 09:52:18;;;;;;;1.13;0.50;;;20.40;48.40;;;;;;5086870;28;21271;-83
2022/12/12 09:54:45;;;;;;;1.80;0.40;;;20.40;48.60;;;;;;5071307;28;20770;-80
2022/12/12 09:57:23;;;;;;;1.38;0.50;;;20.30;48.80;;;;;;5069123;28;20831;-82
2022/12/12 09:59:59;;;;;;;2.40;0.55;;;20.20;49.10;;;;;;5069682;28;20393;-82
2022/12/12 10:02:57;;;;;;;1.70;0.43;;;20.20;49.10;;;;;;5069847;28;20370;-81
2022/12/12 10:05:42;;;;;;;1.63;0.40;;;20.20;49.50;;;;;;5069376;28;20393;-82
2022/12/12 10:08:18;;;;;;;1.85;0.38;;;20.10;49.20;;;;;;5068461;28;20885;-81
2022/12/12 10:10:50;;;;;;;3.78;0.50;;;20.10;49.70;;;;;;5067862;28;20409;-81
2022/12/12 10:13:29;;;;;;;2.20;0.50;;;20.10;49.80;;;;;;5069556;28;20366;-83
2022/12/12 10:16:15;;;;;;;2.77;0.50;;;19.90;49.90;;;;;;5069757;28;20378;-82
2022/12/12 10:18:47;;;;;;;1.63;0.40;;;19.90;50.40;;;;;;5070851;28;20382;-82
2022/12/12 10:21:26;;;;;;;2.13;0.50;;;19.80;50.40;;;;;;5070008;28;20469;-82
2022/12/12 10:24:16;;;;;;;2.80;0.50;;;19.70;50.50;;;;;;5069752;28;20386;-83
2022/12/12 10:26:43;;;;;;;1.63;0.50;;;19.60;50.40;;;;;;5058322;28;20457;-84
2022/12/12 10:29:19;;;;;;;2.63;0.60;;;19.60;50.30;;;;;;5084350;28;20415;-87
2022/12/12 10:32:01;;;;;;;1.90;0.43;;;19.60;50.70;;;;;;5082978;28;20396;-82
2022/12/12 10:34:47;;;;;;;1.90;0.55;;;19.60;50.10;;;;;;5086106;28;20408;-82
2022/12/12 10:37:31;;;;;;;1.73;0.45;;;19.60;50.20;;;;;;5081156;28;20595;-82
2022/12/12 10:39:58;;;;;;;3.17;0.50;;;19.70;49.40;;;;;;5090247;28;20464;-82
2022/12/12 10:42:52;;;;;;;1.80;0.50;;;19.80;49.70;;;;;;5091413;28;20373;-82
2022/12/12 10:45:38;;;;;;;1.93;0.70;;;19.60;49.90;;;;;;5077240;28;20478;-82
2022/12/12 10:48:05;;;;;;;1.73;0.40;;;19.50;50.80;;;;;;5089641;28;20372;-82
2022/12/12 10:51:07;;;;;;;1.40;0.50;;;19.50;50.50;;;;;;5077909;28;20411;-82
2022/12/12 10:53:35;;;;;;;3.60;0.60;;;19.60;50.60;;;;;;5077983;28;20408;-82
2022/12/12 10:56:08;;;;;;;1.67;0.45;;;19.40;51.80;;;;;;5072521;28;21004;-83
2022/12/12 10:58:41;;;;;;;2.13;0.60;;;19.20;51.70;;;;;;5073487;28;20385;-83
2022/12/12 11:01:25;;;;;;;2.70;0.50;;;19.20;52.40;;;;;;5074849;28;20487;-83
2022/12/12 11:03:54;;;;;;;2.45;0.55;;;19.10;52.70;;;;;;5073304;28;20362;-84
2022/12/12 11:07:00;;;;;;;1.52;0.50;;;19.10;51.40;;;;;;5073034;28;20378;-82
2022/12/12 11:09:29;;;;;;;1.60;0.50;;;19.10;51.40;;;;;;5032981;28;20401;-83
2022/12/12 11:12:14;;;;;;;2.50;0.50;;;19.10;51.70;;;;;;5037953;28;20378;-83
2022/12/12 11:14:46;;;;;;;1.15;0.32;;;18.90;51.90;;;;;;5036839;28;20404;-83
2022/12/12 11:17:27;;;;;;;3.38;0.50;;;19.10;51.20;;;;;;5043938;28;20378;-83
2022/12/12 11:19:58;;;;;;;4.45;0.60;;;19.20;50.60;;;;;;5034289;28;20396;-84
2022/12/12 11:22:26;;;;;;;2.80;0.50;;;19.20;50.60;;;;;;4982991;28;20399;-81
2022/12/12 11:24:54;;;;;;;1.15;0.50;;;19.10;50.90;;;;;;4987564;28;20873;-82
2022/12/12 11:27:38;;;;;;;1.50;0.50;;;19.10;50.90;;;;;;4997799;28;20455;-84
2022/12/12 11:30:21;;;;;;;13.30;10.43;;;19.00;51.30;;;;;;4953113;29;20412;-84
2022/12/12 11:32:52;;;;;;;4.95;3.17;;;18.90;51.70;;;;;;4955904;29;20457;-83
2022/12/12 11:35:38;;;;;;;2.30;0.80;;;18.80;51.90;;;;;;4939712;29;20500;-85
2022/12/12 11:38:31;;;;;;;2.25;0.50;;;18.70;52.40;;;;;;4931511;29;20394;-85
2022/12/12 11:41:05;;;;;;;2.10;0.50;;;18.60;52.40;;;;;;4921841;29;20427;-81
2022/12/12 11:43:36;;;;;;;2.70;0.60;;;18.50;52.60;;;;;;4929683;29;20416;-82
2022/12/12 11:46:17;;;;;;;3.05;0.50;;;18.50;52.70;;;;;;4929560;29;20911;-84
2022/12/12 11:48:52;;;;;;;1.95;0.40;;;18.40;52.70;;;;;;4936480;29;20405;-81
2022/12/12 11:51:37;;;;;;;1.65;0.40;;;18.30;52.70;;;;;;4949531;29;20824;-85
2022/12/12 11:54:12;;;;;;;1.40;0.32;;;18.30;53.60;;;;;;4921896;29;20413;-82
2022/12/12 11:57:04;;;;;;;1.30;0.40;;;18.30;52.50;;;;;;4932734;29;20464;-82
2022/12/12 12:00:01;;;;;;;1.13;0.40;;;18.30;52.60;;;;;;4947619;28;20493;-82
2022/12/12 12:03:04;;;;;;;1.50;0.40;;;18.30;52.60;;;;;;4990263;28;20384;-85
2022/12/12 12:05:51;;;;;;;1.20;0.47;;;18.30;53.00;;;;;;4988735;28;20401;-84
2022/12/12 12:08:40;;;;;;;0.88;0.45;;;18.30;53.50;;;;;;4989157;28;20397;-82
2022/12/12 12:11:30;;;;;;;2.85;0.40;;;18.30;53.10;;;;;;4989157;28;20407;-83
2022/12/12 12:14:26;;;;;;;3.23;0.50;;;18.20;53.20;;;;;;4999031;28;20478;-84
2022/12/12 12:17:00;;;;;;;2.70;0.40;;;18.20;53.80;;;;;;4999726;28;20391;-83
2022/12/12 12:19:38;;;;;;;1.90;0.50;;;18.10;54.10;;;;;;5061037;28;20388;-83
2022/12/12 12:22:18;;;;;;;1.50;0.50;;;18.00;54.30;;;;;;5056033;28;20386;-83
2022/12/12 12:25:09;;;;;;;2.95;0.60;;;17.80;54.30;;;;;;5052725;28;20398;-82
2022/12/12 12:27:57;;;;;;;2.28;0.50;;;17.80;54.50;;;;;;5068189;28;20374;-83
2022/12/12 12:30:45;;;;;;;2.20;0.68;;;17.80;54.40;;;;;;5091015;28;20410;-83
2022/12/12 12:33:31;;;;;;;1.93;0.90;;;17.80;54.70;;;;;;5076586;28;20385;-82
2022/12/12 12:36:13;;;;;;;3.88;0.60;;;17.70;54.90;;;;;;5068290;28;20380;-83
2022/12/12 12:39:01;;;;;;;1.95;0.65;;;17.70;55.20;;;;;;5085254;28;20514;-81
2022/12/12 12:41:47;;;;;;;3.72;0.70;;;17.60;55.40;;;;;;5078685;28;20920;-82
2022/12/12 12:44:35;;;;;;;2.42;0.73;;;17.50;55.30;;;;;;5061306;28;20418;-81
2022/12/12 12:47:23;;;;;;;2.80;0.60;;;17.40;55.60;;;;;;5072481;28;20716;-83
2022/12/12 12:49:55;;;;;;;1.73;0.50;;;17.40;55.70;;;;;;5090696;28;20943;-82
2022/12/12 12:52:47;;;;;;;3.15;0.45;;;17.40;56.20;;;;;;5087042;28;20392;-83
2022/12/12 12:55:18;;;;;;;1.35;0.60;;;17.30;55.60;;;;;;5076142;28;20377;-84
2022/12/12 12:57:48;;;;;;;1.30;0.53;;;17.40;55.20;;;;;;5081394;28;20382;-81
2022/12/12 13:00:20;;;;;;;2.15;0.43;;;17.40;55.30;;;;;;5074864;28;20384;-81
2022/12/12 13:03:01;;;;;;;2.50;0.50;;;17.40;55.10;;;;;;5082203;28;20384;-83
2022/12/12 13:05:35;;;;;;;3.20;0.60;;;17.40;56.10;;;;;;5068115;28;20867;-83
2022/12/12 13:08:40;;;;;;;4.40;0.75;;;17.20;56.90;;;;;;5083171;28;20884;-82
2022/12/12 13:11:19;;;;;;;2.42;0.50;;;17.00;57.20;;;;;;5074070;28;20461;-82
2022/12/12 13:13:48;;;;;;;2.67;0.52;;;16.90;57.70;;;;;;5079702;28;20422;-83
2022/12/12 13:16:25;;;;;;;2.65;0.60;;;16.70;58.10;;;;;;5081914;28;20401;-82
2022/12/12 13:19:32;;;;;;;2.75;0.50;;;16.70;57.50;;;;;;5081157;28;20473;-85
2022/12/12 13:22:15;;;;;;;2.72;0.52;;;16.80;57.50;;;;;;5041785;28;20914;-84
2022/12/12 13:25:11;;;;;;;3.47;0.60;;;16.90;57.00;;;;;;5029344;28;20490;-82
2022/12/12 13:27:49;;;;;;;2.78;0.60;;;17.00;56.30;;;;;;5028110;28;20408;-80
2022/12/12 13:30:39;;;;;;;4.43;0.57;;;17.00;55.90;;;;;;5040132;28;20471;-81
2022/12/12 13:33:28;;;;;;;2.08;0.50;;;17.10;56.80;;;;;;5034872;28;20401;-80
2022/12/12 13:36:05;;;;;;;1.83;0.53;;;17.10;56.10;;;;;;5026771;28;20412;-81
2022/12/12 13:38:34;;;;;;;3.40;0.60;;;17.20;55.60;;;;;;5047892;28;20949;-82